Terminal Aerodrome Forecast
Issued by NWS

Home | Current Version | Previous Version | Text Only | Print | Product List | Glossary On
Versions: 1 2 3 4 5 6 7 8 9 10 11 12 13
000
FTUS43 KGRB 291723
TAFMTW
TAF
KMTW 291723Z 2918/3018 26016G28KT P6SM SKC
     FM300000 27012G20KT P6SM SKC
     FM300300 26006KT P6SM SKC
     FM301500 28014G24KT P6SM SKC=

USA.gov is the U.S. government's official web portal to all federal, state and local government web resources and services.